createdAt,value
2018-09-14T00:00:01.733Z,7.70
2018-09-14T00:02:40.568Z,10.47
2018-09-14T00:05:09.408Z,6.37
2018-09-14T00:07:38.799Z,9.70
2018-09-14T00:10:19.260Z,9.30
2018-09-14T00:13:05.044Z,17.03
2018-09-14T00:15:35.632Z,8.07
2018-09-14T00:18:06.205Z,12.43
2018-09-14T00:20:36.707Z,7.43
2018-09-14T00:23:23.788Z,7.70
2018-09-14T00:26:08.152Z,11.20
2018-09-14T00:28:40.816Z,7.13
2018-09-14T00:31:10.469Z,8.77
2018-09-14T00:33:40.027Z,8.10
2018-09-14T00:36:09.717Z,9.73
2018-09-14T00:38:40.182Z,694.23
2018-09-14T00:41:11.969Z,7.47
2018-09-14T00:43:40.592Z,8.50
2018-09-14T00:46:16.669Z,9.53
2018-09-14T00:49:08.731Z,8.97
2018-09-14T00:51:53.351Z,10.90
2018-09-14T00:54:33.425Z,7.57
2018-09-14T00:57:01.813Z,6.73
2018-09-14T00:59:30.187Z,11.90
2018-09-14T01:02:02.261Z,9.03
2018-09-14T01:04:42.887Z,11.07
2018-09-14T01:07:13.451Z,8.90
2018-09-14T01:09:45.535Z,8.87
2018-09-14T01:12:18.527Z,7.97
2018-09-14T01:14:53.629Z,9.03
2018-09-14T01:17:22.074Z,9.23
2018-09-14T01:19:50.713Z,6.90
2018-09-14T01:22:19.069Z,7.27
2018-09-14T01:24:49.621Z,12.27
2018-09-14T01:27:17.963Z,10.17
2018-09-14T01:29:47.636Z,1999.90
2018-09-14T01:32:25.875Z,9.87
2018-09-14T01:34:56.352Z,13.10
2018-09-14T01:37:29.955Z,12.83
2018-09-14T01:39:58.372Z,14.17
2018-09-14T01:42:27.051Z,13.03
2018-09-14T01:44:56.644Z,12.33
2018-09-14T01:47:25.065Z,11.10
2018-09-14T01:49:54.636Z,12.23
2018-09-14T01:52:23.045Z,13.50
2018-09-14T01:54:57.878Z,13.00
2018-09-14T01:57:28.384Z,10.57
2018-09-14T01:59:57.970Z,10.87
2018-09-14T02:02:26.358Z,12.33
2018-09-14T02:04:56.904Z,12.17
2018-09-14T02:07:26.496Z,14.27
2018-09-14T02:09:54.882Z,12.13
2018-09-14T02:12:23.210Z,12.03
2018-09-14T02:14:52.878Z,12.33
2018-09-14T02:17:33.243Z,14.77
2018-09-14T02:20:07.714Z,12.37
2018-09-14T02:22:47.802Z,17.30
2018-09-14T02:25:17.401Z,15.90
2018-09-14T02:28:03.287Z,12.37
2018-09-14T02:30:37.516Z,11.03
2018-09-14T02:33:12.342Z,15.07
2018-09-14T02:35:46.841Z,12.03
2018-09-14T02:38:21.974Z,10.83
2018-09-14T02:41:02.669Z,12.53
2018-09-14T02:43:35.128Z,11.60
2018-09-14T02:46:05.598Z,13.33
2018-09-14T02:48:38.645Z,14.90
2018-09-14T02:51:07.262Z,9.00
2018-09-14T02:53:39.677Z,10.13
2018-09-14T02:56:08.282Z,12.40
2018-09-14T02:58:41.337Z,10.43
2018-09-14T03:01:19.800Z,13.60
2018-09-14T03:04:05.706Z,11.87
2018-09-14T03:06:39.936Z,9.17
2018-09-14T03:09:19.376Z,9.80
2018-09-14T03:11:47.750Z,341.13
2018-09-14T03:14:17.407Z,10.07
2018-09-14T03:16:46.099Z,25.97
2018-09-14T03:19:16.667Z,15.43
2018-09-14T03:21:45.265Z,1999.90
2018-09-14T03:24:13.645Z,1999.90
2018-09-14T03:26:45.431Z,1999.90
2018-09-14T03:29:21.609Z,1999.90
2018-09-14T03:32:02.464Z,1999.90
2018-09-14T03:34:36.760Z,1999.90
2018-09-14T03:37:11.311Z,1999.90
2018-09-14T03:39:44.141Z,1999.90
2018-09-14T03:42:13.843Z,1999.90
2018-09-14T03:45:05.213Z,1999.90
2018-09-14T03:47:35.798Z,1999.90
2018-09-14T03:50:07.507Z,1999.90
2018-09-14T03:52:37.115Z,1999.90
2018-09-14T03:55:05.925Z,1999.90
2018-09-14T03:57:47.084Z,1999.90
2018-09-14T04:00:20.754Z,1999.90
2018-09-14T04:02:52.801Z,1999.90
2018-09-14T04:08:31.242Z,1999.90
2018-09-14T04:11:11.946Z,1999.90
2018-09-14T04:16:51.082Z,1999.90
2018-09-14T04:19:35.763Z,1999.90
2018-09-14T04:22:04.154Z,1999.90
2018-09-14T04:24:44.843Z,1999.90
2018-09-14T04:27:24.242Z,1999.90
2018-09-14T04:29:54.783Z,1999.90
2018-09-14T04:32:24.376Z,1999.90
2018-09-14T04:34:53.553Z,1999.90
2018-09-14T04:37:29.140Z,1999.90
2018-09-14T04:40:04.013Z,1999.90
2018-09-14T04:42:38.210Z,1999.90
2018-09-14T04:45:09.926Z,1999.90
2018-09-14T04:47:49.100Z,1999.90
2018-09-14T04:50:18.719Z,1999.90
2018-09-14T04:52:47.364Z,1999.90
2018-09-14T04:55:30.497Z,1999.90
2018-09-14T04:58:02.260Z,1999.90
2018-09-14T05:00:32.836Z,1999.90
2018-09-14T05:03:03.356Z,753.70
2018-09-14T05:05:33.842Z,24.17
2018-09-14T05:08:03.460Z,19.73
2018-09-14T05:10:36.826Z,14.57
2018-09-14T05:13:08.613Z,15.23
2018-09-14T05:15:43.986Z,13.97
2018-09-14T05:18:33.263Z,18.33
2018-09-14T05:23:56.224Z,12.53
2018-09-14T05:26:26.600Z,10.93
2018-09-14T05:28:56.357Z,12.30
2018-09-14T05:31:26.880Z,18.00
2018-09-14T05:33:58.556Z,14.03
2018-09-14T05:36:30.282Z,13.43
2018-09-14T05:38:58.674Z,16.23
2018-09-14T05:41:30.820Z,16.10
2018-09-14T05:44:00.779Z,12.00
2018-09-14T05:46:37.657Z,13.10
2018-09-14T05:49:22.594Z,15.67
2018-09-14T05:51:51.010Z,13.43
2018-09-14T05:54:21.603Z,11.67
2018-09-14T05:57:01.841Z,12.70
2018-09-14T05:59:46.590Z,13.47
2018-09-14T06:02:20.718Z,14.77
2018-09-14T06:04:53.304Z,12.80
2018-09-14T06:07:25.044Z,14.30
2018-09-14T06:09:58.862Z,17.93
2018-09-14T06:12:29.372Z,14.87
2018-09-14T06:14:59.116Z,22.67
2018-09-14T06:17:28.694Z,1999.90
2018-09-14T06:20:20.912Z,1999.90
2018-09-14T06:22:49.778Z,1999.90
2018-09-14T06:25:21.433Z,1999.90
2018-09-14T06:27:50.088Z,1999.90
2018-09-14T06:30:19.011Z,1999.90
2018-09-14T06:32:47.829Z,1999.90
2018-09-14T06:35:22.309Z,1999.90
2018-09-14T06:38:02.031Z,1999.90
2018-09-14T06:40:30.971Z,1999.90
2018-09-14T06:43:00.698Z,1999.90
2018-09-14T06:45:34.893Z,1999.90
2018-09-14T06:48:09.049Z,1999.90
2018-09-14T06:50:44.548Z,1999.90
2018-09-14T06:53:13.295Z,1999.90
2018-09-14T06:55:42.901Z,50.47
2018-09-14T06:58:11.368Z,25.60
2018-09-14T07:00:39.816Z,23.20
2018-09-14T07:03:08.227Z,37.07
2018-09-14T07:05:36.631Z,25.10
2018-09-14T07:08:05.035Z,23.10
2018-09-14T07:10:33.405Z,28.27
2018-09-14T07:13:01.801Z,24.90
2018-09-14T07:15:30.193Z,31.20
2018-09-14T07:17:58.595Z,28.03
2018-09-14T07:20:27.074Z,46.47
2018-09-14T07:22:55.466Z,22.83
2018-09-14T07:25:23.817Z,23.87
2018-09-14T07:27:52.320Z,23.47
2018-09-14T07:30:20.805Z,32.20
2018-09-14T07:32:52.417Z,25.13
2018-09-14T07:35:20.823Z,25.43
2018-09-14T07:37:49.192Z,22.40
2018-09-14T07:40:17.612Z,26.10
2018-09-14T07:42:45.986Z,23.80
2018-09-14T07:45:14.354Z,21.53
2018-09-14T07:47:44.052Z,25.37
2018-09-14T07:50:12.426Z,24.00
2018-09-14T07:52:40.788Z,22.67
2018-09-14T07:55:09.192Z,27.50
2018-09-14T07:57:37.557Z,26.77
2018-09-14T08:00:06.327Z,28.83
2018-09-14T08:02:34.714Z,82.43
2018-09-14T08:05:03.082Z,28.37
2018-09-14T08:07:31.474Z,31.80
2018-09-14T08:09:59.856Z,35.80
2018-09-14T08:12:28.243Z,35.30
2018-09-14T08:14:56.743Z,40.80
2018-09-14T08:17:25.123Z,32.30
2018-09-14T08:19:53.505Z,30.53
2018-09-14T08:22:21.911Z,33.83
2018-09-14T08:24:50.345Z,34.43
2018-09-14T08:27:19.132Z,30.00
2018-09-14T08:29:47.729Z,26.20
2018-09-14T08:32:16.233Z,27.03
2018-09-14T08:34:44.578Z,28.20
2018-09-14T08:37:13.075Z,24.30
2018-09-14T08:39:41.489Z,23.80
2018-09-14T08:42:09.872Z,22.70
2018-09-14T08:44:38.313Z,21.63
2018-09-14T08:47:06.658Z,22.20
2018-09-14T08:49:35.013Z,24.27
2018-09-14T08:52:03.759Z,21.20
2018-09-14T08:54:45.604Z,20.97
2018-09-14T08:57:18.293Z,16.80
2018-09-14T08:59:53.719Z,22.13
2018-09-14T09:02:41.770Z,17.90
2018-09-14T09:05:28.005Z,16.93
2018-09-14T09:07:59.696Z,16.67
2018-09-14T09:10:41.283Z,21.37
2018-09-14T09:13:10.900Z,21.10
2018-09-14T09:15:39.307Z,25.10
2018-09-14T09:18:13.492Z,21.40
2018-09-14T09:20:42.839Z,28.73
2018-09-14T09:23:24.774Z,19.07
2018-09-14T09:25:53.144Z,20.47
2018-09-14T09:28:21.485Z,18.73
2018-09-14T09:30:50.894Z,19.13
2018-09-14T09:33:19.258Z,19.50
2018-09-14T09:35:47.858Z,16.37
2018-09-14T09:38:17.432Z,15.97
2018-09-14T09:40:51.380Z,17.73
2018-09-14T09:43:24.993Z,14.97
2018-09-14T09:46:05.026Z,18.17
2018-09-14T09:48:37.372Z,14.27
2018-09-14T09:51:11.641Z,12.80
2018-09-14T09:53:42.250Z,19.73
2018-09-14T09:56:13.974Z,14.93
2018-09-14T09:58:42.724Z,15.43
2018-09-14T10:01:16.603Z,12.47
2018-09-14T10:03:49.578Z,11.13
2018-09-14T10:06:23.987Z,11.73
2018-09-14T10:08:52.753Z,14.87
2018-09-14T10:11:21.211Z,13.37
2018-09-14T10:13:49.744Z,12.07
2018-09-14T10:16:18.266Z,9.27
2018-09-14T10:18:46.798Z,11.20
2018-09-14T10:21:15.372Z,11.07
2018-09-14T10:23:43.756Z,12.83
2018-09-14T10:26:12.326Z,14.93
2018-09-14T10:28:40.983Z,14.47
2018-09-14T10:31:21.916Z,9.80
2018-09-14T10:33:50.492Z,13.03
2018-09-14T10:36:19.226Z,13.10
2018-09-14T10:38:52.257Z,9.53
2018-09-14T10:41:22.805Z,13.27
2018-09-14T10:43:52.451Z,11.77
2018-09-14T10:46:21.134Z,10.37
2018-09-14T10:48:49.856Z,10.27
2018-09-14T10:51:23.481Z,7.37
2018-09-14T10:53:52.159Z,9.20
2018-09-14T10:56:20.858Z,9.73
2018-09-14T10:58:51.370Z,9.60
2018-09-14T11:01:20.990Z,13.73
2018-09-14T11:03:53.042Z,8.80
2018-09-14T11:06:26.934Z,9.63
2018-09-14T11:08:55.596Z,11.33
2018-09-14T11:11:24.279Z,10.17
2018-09-14T11:13:53.079Z,9.43
2018-09-14T11:16:21.725Z,16.30
2018-09-14T11:18:50.449Z,10.10
2018-09-14T11:21:19.061Z,9.43
2018-09-14T11:24:05.806Z,11.87
2018-09-14T11:26:34.248Z,11.20
2018-09-14T11:29:04.816Z,10.70
2018-09-14T11:31:36.727Z,11.07
2018-09-14T11:34:05.249Z,7.73
2018-09-14T11:36:34.967Z,13.13
2018-09-14T11:39:08.900Z,11.00
2018-09-14T11:41:40.844Z,12.53
2018-09-14T11:44:19.396Z,12.00
2018-09-14T11:46:48.641Z,15.77
2018-09-14T11:49:17.315Z,9.37
2018-09-14T11:51:45.685Z,10.97
2018-09-14T11:54:14.229Z,9.53
2018-09-14T11:56:42.518Z,12.43
2018-09-14T11:59:11.416Z,16.43
2018-09-14T12:01:39.925Z,17.60
2018-09-14T12:04:10.440Z,8.57
2018-09-14T12:06:42.538Z,8.43
2018-09-14T12:09:17.225Z,10.73
2018-09-14T12:11:50.502Z,8.00
2018-09-14T12:14:18.880Z,10.27
2018-09-14T12:16:47.317Z,9.77
2018-09-14T12:19:16.934Z,8.90
2018-09-14T12:21:46.535Z,8.53
2018-09-14T12:24:18.593Z,10.53
2018-09-14T12:26:47.262Z,8.47
2018-09-14T12:29:16.938Z,11.13
2018-09-14T12:31:45.354Z,7.13
2018-09-14T12:34:20.831Z,13.00
2018-09-14T12:36:57.745Z,7.77
2018-09-14T12:39:32.135Z,5.90
2018-09-14T12:42:01.782Z,7.03
2018-09-14T12:47:43.440Z,8.13
2018-09-14T12:50:13.069Z,7.90
2018-09-14T12:52:41.690Z,10.27
2018-09-14T12:55:10.071Z,6.63
2018-09-14T12:57:39.814Z,7.37
2018-09-14T13:00:15.604Z,9.07
2018-09-14T13:02:48.808Z,6.17
2018-09-14T13:05:17.514Z,8.10
2018-09-14T13:07:53.880Z,7.57
2018-09-14T13:10:28.646Z,10.07
2018-09-14T13:13:00.748Z,6.77
2018-09-14T13:15:39.299Z,7.83
2018-09-14T13:18:07.997Z,7.03
2018-09-14T13:20:39.757Z,7.80
2018-09-14T13:23:12.705Z,8.37
2018-09-14T13:25:43.453Z,5.30
2018-09-14T13:28:14.477Z,7.30
2018-09-14T13:30:43.149Z,7.77
2018-09-14T13:33:14.016Z,9.40
2018-09-14T13:35:44.474Z,8.50
2018-09-14T13:38:24.765Z,8.70
2018-09-14T13:40:58.071Z,9.43
2018-09-14T13:43:31.653Z,12.87
2018-09-14T13:46:00.468Z,8.00
2018-09-14T13:48:29.269Z,12.60
2018-09-14T13:51:03.469Z,19.33
2018-09-14T13:53:36.171Z,8.77
2018-09-14T13:56:04.726Z,9.33
2018-09-14T13:58:33.383Z,9.37
2018-09-14T14:01:02.122Z,9.97
2018-09-14T14:03:30.737Z,11.73
2018-09-14T14:05:59.447Z,11.87
2018-09-14T14:08:28.239Z,14.10
2018-09-14T14:10:56.888Z,10.23
2018-09-14T14:13:25.705Z,11.10
2018-09-14T14:15:54.495Z,10.70
2018-09-14T14:18:23.051Z,13.40
2018-09-14T14:20:57.053Z,11.47
2018-09-14T14:23:25.678Z,16.60
2018-09-14T14:25:54.358Z,9.87
2018-09-14T14:28:24.905Z,7.53
2018-09-14T14:30:54.553Z,8.80
2018-09-14T14:33:24.211Z,10.10
2018-09-14T14:35:52.869Z,14.50
2018-09-14T14:38:22.470Z,8.90
2018-09-14T14:41:03.160Z,19.00
2018-09-14T14:43:32.964Z,8.77
2018-09-14T14:46:12.756Z,12.97
2018-09-14T14:48:48.256Z,11.17
2018-09-14T14:51:17.896Z,11.80
2018-09-14T14:53:52.356Z,8.97
2018-09-14T14:56:21.936Z,8.77
2018-09-14T14:58:50.626Z,8.33
2018-09-14T15:01:19.651Z,10.13
2018-09-14T15:03:49.340Z,8.90
2018-09-14T15:06:18.012Z,14.23
2018-09-14T15:08:50.365Z,11.33
2018-09-14T15:11:20.896Z,8.60
2018-09-14T15:13:57.531Z,7.43
2018-09-14T15:16:27.040Z,10.90
2018-09-14T15:18:57.632Z,6.93
2018-09-14T15:21:33.089Z,8.30
2018-09-14T15:24:02.679Z,9.83
2018-09-14T15:26:31.383Z,13.00
2018-09-14T15:29:09.769Z,12.37
2018-09-14T15:31:46.498Z,12.70
2018-09-14T15:34:20.816Z,10.03
2018-09-14T15:36:54.988Z,7.60
2018-09-14T15:39:29.203Z,8.77
2018-09-14T15:42:01.880Z,7.80
2018-09-14T15:44:31.481Z,9.17
2018-09-14T15:47:06.930Z,7.23
2018-09-14T15:49:40.849Z,11.07
2018-09-14T15:52:09.228Z,7.33
2018-09-14T15:54:37.634Z,11.80
2018-09-14T15:57:08.133Z,8.17
2018-09-14T15:59:36.543Z,11.17
2018-09-14T16:02:05.278Z,12.07
2018-09-14T16:04:33.955Z,11.00
2018-09-14T16:07:03.521Z,9.73
2018-09-14T16:09:32.247Z,6.47
2018-09-14T16:12:01.831Z,10.63
2018-09-14T16:14:30.523Z,9.77
2018-09-14T16:16:59.215Z,10.97
2018-09-14T16:19:38.710Z,11.20
2018-09-14T16:22:21.746Z,10.40
2018-09-14T16:25:07.626Z,7.70
2018-09-14T16:27:41.351Z,6.97
2018-09-14T16:30:14.321Z,12.53
2018-09-14T16:32:46.893Z,8.73
2018-09-14T16:35:17.565Z,13.87
2018-09-14T16:37:47.374Z,8.67
2018-09-14T16:43:08.742Z,12.77
2018-09-14T16:45:38.393Z,7.87
2018-09-14T16:48:07.059Z,7.27
2018-09-14T16:50:35.718Z,10.07
2018-09-14T16:53:04.405Z,11.03
2018-09-14T16:55:33.066Z,7.87
2018-09-14T16:58:14.340Z,8.70
2018-09-14T17:00:43.016Z,6.40
2018-09-14T17:03:23.390Z,9.07
2018-09-14T17:05:59.999Z,5.57
2018-09-14T17:08:28.549Z,6.77
2018-09-14T17:10:58.138Z,5.13
2018-09-14T17:13:27.719Z,7.00
2018-09-14T17:15:57.244Z,5.07
2018-09-14T17:18:25.914Z,7.37
2018-09-14T17:21:07.605Z,5.07
2018-09-14T17:23:36.602Z,6.90
2018-09-14T17:26:05.317Z,8.97
2018-09-14T17:28:35.829Z,4.53
2018-09-14T17:31:06.705Z,7.10
2018-09-14T17:33:39.496Z,7.37
2018-09-14T17:36:08.121Z,6.67
2018-09-14T17:38:46.522Z,10.33
2018-09-14T17:41:15.321Z,5.90
2018-09-14T17:43:43.998Z,10.30
2018-09-14T17:46:12.662Z,11.70
2018-09-14T17:48:45.269Z,6.47
2018-09-14T17:51:21.262Z,5.40
2018-09-14T17:53:53.798Z,10.83
2018-09-14T17:56:22.398Z,10.30
2018-09-14T17:58:51.994Z,7.23
2018-09-14T18:01:24.164Z,6.37
2018-09-14T18:03:52.784Z,6.20
2018-09-14T18:06:23.320Z,6.73
2018-09-14T18:08:55.373Z,9.00
2018-09-14T18:11:27.175Z,10.17
2018-09-14T18:13:55.742Z,6.07
2018-09-14T18:16:28.845Z,10.40
2018-09-14T18:18:57.496Z,8.23
2018-09-14T18:21:27.166Z,10.37
2018-09-14T18:23:58.010Z,9.50
2018-09-14T18:26:27.614Z,15.20
2018-09-14T18:29:09.724Z,8.53
2018-09-14T18:31:39.479Z,8.87
2018-09-14T18:34:12.367Z,8.07
2018-09-14T18:36:41.029Z,10.53
2018-09-14T18:39:11.428Z,8.87
2018-09-14T18:41:41.399Z,10.27
2018-09-14T18:44:11.174Z,8.20
2018-09-14T18:46:44.042Z,10.03
2018-09-14T18:49:13.176Z,14.53
2018-09-14T18:51:41.755Z,12.40
2018-09-14T18:54:11.215Z,11.73
2018-09-14T18:56:49.416Z,9.20
2018-09-14T18:59:25.840Z,9.70
2018-09-14T19:02:09.005Z,10.40
2018-09-14T19:04:41.096Z,9.37
2018-09-14T19:07:25.425Z,12.67
2018-09-14T19:10:01.803Z,9.17
2018-09-14T19:12:36.703Z,9.20
2018-09-14T19:15:16.359Z,9.37
2018-09-14T19:17:45.767Z,9.80
2018-09-14T19:20:19.276Z,7.87
2018-09-14T19:22:55.996Z,12.27
2018-09-14T19:25:25.631Z,8.83
2018-09-14T19:27:55.376Z,8.47
2018-09-14T19:30:24.044Z,18.33
2018-09-14T19:32:54.809Z,6.77
2018-09-14T19:35:23.701Z,12.50
2018-09-14T19:37:52.524Z,7.37
2018-09-14T19:40:22.174Z,7.60
2018-09-14T19:42:50.774Z,9.93
2018-09-14T19:45:19.489Z,8.57
2018-09-14T19:47:48.106Z,9.03
2018-09-14T19:50:26.351Z,10.23
2018-09-14T19:52:55.955Z,7.20
2018-09-14T19:55:24.677Z,10.90
2018-09-14T19:57:54.322Z,14.60
2018-09-14T20:00:22.970Z,15.47
2018-09-14T20:02:51.651Z,16.03
2018-09-14T20:05:20.336Z,16.30
2018-09-14T20:07:55.448Z,15.33
2018-09-14T20:10:31.251Z,11.10
2018-09-14T20:13:01.764Z,11.27
2018-09-14T20:15:35.088Z,9.10
2018-09-14T20:18:15.976Z,7.83
2018-09-14T20:20:46.552Z,8.90
2018-09-14T20:23:27.150Z,7.33
2018-09-14T20:26:02.920Z,13.03
2018-09-14T20:28:37.486Z,9.80
2018-09-14T20:31:08.016Z,12.83
2018-09-14T20:33:37.590Z,7.77
2018-09-14T20:36:06.261Z,6.43
2018-09-14T20:38:38.762Z,5.43
2018-09-14T20:41:10.712Z,7.77
2018-09-14T20:43:39.512Z,7.17
2018-09-14T20:46:08.190Z,5.33
2018-09-14T20:48:37.696Z,8.87
2018-09-14T20:51:06.536Z,7.10
2018-09-14T20:53:40.579Z,7.30
2018-09-14T20:56:12.344Z,7.13
2018-09-14T20:58:44.178Z,9.97
2018-09-14T21:01:13.728Z,15.57
2018-09-14T21:03:47.914Z,10.87
2018-09-14T21:06:22.417Z,6.60
2018-09-14T21:08:51.126Z,7.30
2018-09-14T21:11:25.090Z,8.90
2018-09-14T21:13:55.610Z,9.77
2018-09-14T21:16:24.291Z,12.80
2018-09-14T21:18:53.014Z,8.60
2018-09-14T21:21:21.738Z,8.93
2018-09-14T21:23:54.227Z,7.60
2018-09-14T21:26:24.089Z,6.90
2018-09-14T21:28:52.571Z,6.57
2018-09-14T21:31:22.223Z,7.67
2018-09-14T21:33:52.768Z,7.03
2018-09-14T21:36:21.583Z,7.30
2018-09-14T21:41:53.565Z,6.80
2018-09-14T21:44:27.120Z,8.17
2018-09-14T21:46:56.778Z,9.47
2018-09-14T21:49:25.509Z,7.57
2018-09-14T21:52:14.627Z,7.90
2018-09-14T21:54:44.374Z,9.77
2018-09-14T21:57:23.180Z,7.90
2018-09-14T21:59:58.122Z,7.80
2018-09-14T22:02:27.763Z,5.70
2018-09-14T22:04:58.726Z,9.17
2018-09-14T22:07:30.572Z,6.70
2018-09-14T22:10:00.611Z,7.30
2018-09-14T22:12:34.190Z,5.47
2018-09-14T22:15:07.076Z,6.20
2018-09-14T22:17:35.828Z,11.90
2018-09-14T22:20:05.297Z,7.60
2018-09-14T22:22:34.126Z,7.73
2018-09-14T22:25:03.774Z,5.83
2018-09-14T22:27:32.568Z,5.43
2018-09-14T22:30:02.507Z,10.17
2018-09-14T22:32:32.767Z,7.20
2018-09-14T22:35:03.528Z,7.80
2018-09-14T22:37:32.404Z,5.50
2018-09-14T22:40:02.580Z,11.77
2018-09-14T22:42:31.319Z,6.43
2018-09-14T22:44:59.904Z,8.33
2018-09-14T22:47:28.572Z,9.37
2018-09-14T22:50:04.500Z,7.00
2018-09-14T22:52:34.161Z,6.30
2018-09-14T22:55:04.742Z,8.20
2018-09-14T22:57:35.304Z,6.73
2018-09-14T23:00:27.547Z,5.57
2018-09-14T23:03:01.182Z,5.67
2018-09-14T23:05:35.034Z,8.87
2018-09-14T23:08:14.482Z,8.50
2018-09-14T23:10:47.751Z,5.37
2018-09-14T23:13:27.841Z,6.60
2018-09-14T23:16:00.103Z,5.80
2018-09-14T23:18:29.377Z,5.50
2018-09-14T23:20:58.272Z,10.47
2018-09-14T23:23:28.005Z,11.47
2018-09-14T23:26:04.840Z,6.67
2018-09-14T23:28:39.429Z,6.50
2018-09-14T23:31:13.926Z,10.77
2018-09-14T23:33:43.526Z,5.80
2018-09-14T23:36:12.242Z,7.53
2018-09-14T23:38:50.368Z,5.47
2018-09-14T23:41:19.027Z,7.60
2018-09-14T23:44:08.023Z,5.20
2018-09-14T23:47:00.365Z,6.23
2018-09-14T23:49:52.705Z,4.40
2018-09-14T23:52:25.479Z,4.63
2018-09-14T23:55:03.979Z,10.30
2018-09-14T23:57:43.671Z,4.33
